Time;durP1;ratioP1;P1;durP2;ratioP2;P2;SDS_P1;SDS_P2;PMS_P1;PMS_P2;Temp;Humidity;BMP_temperature;BMP_pressure;BME280_temperature;BME280_humidity;BME280_pressure;Samples;Min_cycle;Max_cycle;Signal;HPM_P1;HPM_P2
2023/03/11 00:01:59;;;;;;;11.20;3.17;;;;;0.10;100250.00;;;;9724155;30;20222;-79
2023/03/11 00:07:04;;;;;;;8.23;3.10;;;;;0.10;100253.00;;;;9737559;30;20199;-79
2023/03/11 00:12:06;;;;;;;7.90;3.63;;;;;0.00;100253.00;;;;9724473;30;20272;-79
2023/03/11 00:17:08;;;;;;;6.57;3.27;;;;;0.10;100265.00;;;;9706936;30;20207;-79
2023/03/11 00:22:10;;;;;;;6.57;3.33;;;;;0.10;100262.00;;;;9724313;30;20202;-78
2023/03/11 00:27:12;;;;;;;10.27;4.50;;;;;0.10;100267.00;;;;9728417;30;20199;-78
2023/03/11 00:32:14;;;;;;;11.83;3.60;;;;;0.10;100266.00;;;;9723781;30;20232;-79
2023/03/11 00:37:17;;;;;;;9.53;3.40;;;;;0.10;100288.00;;;;9738494;30;20727;-78
2023/03/11 00:42:21;;;;;;;7.53;3.00;;;;;0.00;100299.00;;;;9723126;30;20222;-78
2023/03/11 00:47:26;;;;;;;4.87;2.97;;;;;0.00;100283.00;;;;9737071;30;20202;-79
2023/03/11 00:52:28;;;;;;;7.63;2.80;;;;;-0.10;100290.00;;;;9717794;30;20301;-78
2023/03/11 00:57:30;;;;;;;5.37;3.13;;;;;-0.30;100287.00;;;;9718583;30;20207;-79
2023/03/11 01:02:34;;;;;;;12.17;3.27;;;;;-0.40;100282.00;;;;9733839;30;20206;-78
2023/03/11 01:07:36;;;;;;;11.47;2.97;;;;;-0.50;100288.00;;;;9723114;30;20203;-78
2023/03/11 01:12:38;;;;;;;7.00;2.87;;;;;-0.50;100300.00;;;;9714074;30;20289;-79
2023/03/11 01:17:40;;;;;;;7.80;2.73;;;;;-0.50;100304.00;;;;9767219;30;20726;-79
2023/03/11 01:22:44;;;;;;;6.97;2.57;;;;;-0.50;100297.00;;;;9736723;30;20202;-78
2023/03/11 01:27:46;;;;;;;6.83;2.13;;;;;-0.60;100290.00;;;;9736001;30;20700;-79
2023/03/11 01:32:48;;;;;;;5.73;2.27;;;;;-0.60;100296.00;;;;9736300;30;20563;-78
2023/03/11 01:37:51;;;;;;;3.23;2.20;;;;;-0.70;100302.00;;;;9727869;30;20215;-79
2023/03/11 01:42:54;;;;;;;6.93;2.40;;;;;-0.70;100300.00;;;;9743154;30;20238;-79
2023/03/11 01:47:59;;;;;;;9.07;2.70;;;;;-0.60;100314.00;;;;9757550;30;20209;-79
2023/03/11 01:53:03;;;;;;;6.03;2.13;;;;;-0.40;100320.00;;;;9753742;30;20221;-78
2023/03/11 01:58:09;;;;;;;4.03;2.63;;;;;-0.30;100325.00;;;;9725089;30;20229;-78
2023/03/11 02:03:32;;;;;;;11.53;2.93;;;;;-0.10;100331.00;;;;9721845;30;20193;-78
2023/03/11 02:08:35;;;;;;;4.73;2.50;;;;;0.00;100335.00;;;;9738075;30;20191;-79
2023/03/11 02:13:40;;;;;;;7.73;2.83;;;;;0.00;100318.00;;;;9727065;30;20218;-78
2023/03/11 02:18:43;;;;;;;12.53;3.27;;;;;0.10;100306.00;;;;9734231;30;20233;-79
2023/03/11 02:23:54;;;;;;;10.43;3.47;;;;;0.20;100298.00;;;;9733566;30;20206;-79
2023/03/11 02:28:58;;;;;;;9.50;3.27;;;;;0.10;100290.00;;;;9734553;30;20217;-79
2023/03/11 02:34:03;;;;;;;7.23;2.87;;;;;0.10;100287.00;;;;9763244;30;20226;-78
2023/03/11 02:39:06;;;;;;;6.13;2.70;;;;;0.10;100292.00;;;;9719819;30;20293;-79
2023/03/11 02:44:14;;;;;;;7.80;3.60;;;;;0.00;100297.00;;;;9719821;30;20234;-78
2023/03/11 02:49:17;;;;;;;9.93;3.23;;;;;0.00;100313.00;;;;9720003;30;20205;-78
2023/03/11 02:54:19;;;;;;;8.20;2.97;;;;;-0.20;100312.00;;;;9698868;30;20227;-78
2023/03/11 02:59:21;;;;;;;10.07;3.83;;;;;-0.40;100319.00;;;;9715803;30;20297;-78
2023/03/11 03:04:24;;;;;;;13.13;4.20;;;;;-0.50;100321.00;;;;9761126;30;20210;-79
2023/03/11 03:09:26;;;;;;;8.33;4.30;;;;;-0.60;100331.00;;;;9733004;30;20203;-78
2023/03/11 03:14:29;;;;;;;6.40;3.53;;;;;-0.60;100331.00;;;;9733359;30;20718;-78
2023/03/11 03:19:32;;;;;;;7.67;3.27;;;;;-0.70;100339.00;;;;9719087;30;20211;-79
2023/03/11 03:24:34;;;;;;;6.80;3.73;;;;;-0.70;100318.00;;;;9725919;30;20229;-78
2023/03/11 03:29:36;;;;;;;10.70;3.70;;;;;-0.70;100319.00;;;;9711201;30;20692;-78
2023/03/11 03:34:39;;;;;;;10.60;3.57;;;;;-0.60;100323.00;;;;9713877;30;20246;-78
2023/03/11 03:39:42;;;;;;;11.23;4.43;;;;;-0.40;100333.00;;;;9732285;30;20207;-79
2023/03/11 03:44:46;;;;;;;10.50;3.90;;;;;-0.30;100323.00;;;;9760659;30;20238;-79
2023/03/11 03:49:48;;;;;;;15.07;3.97;;;;;-0.30;100336.00;;;;9715605;30;20215;-79
2023/03/11 03:54:50;;;;;;;8.83;3.33;;;;;-0.30;100335.00;;;;9717689;30;20203;-79
2023/03/11 03:59:52;;;;;;;8.47;3.43;;;;;-0.20;100340.00;;;;9723005;30;20610;-79
2023/03/11 04:04:54;;;;;;;8.50;3.37;;;;;-0.20;100358.00;;;;9752944;30;20210;-79
2023/03/11 04:09:57;;;;;;;10.80;3.67;;;;;-0.40;100355.00;;;;9752826;30;20548;-78
2023/03/11 04:14:59;;;;;;;5.70;3.37;;;;;-0.50;100343.00;;;;9724362;30;20205;-78
2023/03/11 04:20:06;;;;;;;9.53;3.33;;;;;-0.70;100356.00;;;;9723251;30;20190;-77
2023/03/11 04:25:08;;;;;;;5.83;2.93;;;;;-0.70;100355.00;;;;9724253;30;20198;-78
2023/03/11 04:30:12;;;;;;;7.87;3.60;;;;;-0.90;100358.00;;;;9708472;30;20219;-78
2023/03/11 04:35:15;;;;;;;13.97;3.63;;;;;-1.00;100363.00;;;;9716046;30;20221;-77
2023/03/11 04:40:18;;;;;;;11.00;4.20;;;;;-1.00;100373.00;;;;9703058;30;20226;-78
2023/03/11 04:45:21;;;;;;;7.77;4.30;;;;;-1.10;100360.00;;;;9731031;30;20334;-78
2023/03/11 04:50:26;;;;;;;7.13;3.87;;;;;-1.10;100364.00;;;;9738667;30;20309;-78
2023/03/11 04:55:29;;;;;;;6.37;3.80;;;;;-1.10;100367.00;;;;9752434;30;20199;-79
2023/03/11 05:00:31;;;;;;;12.60;3.93;;;;;-1.20;100361.00;;;;9723923;30;20740;-78
2023/03/11 05:05:41;;;;;;;10.43;4.40;;;;;-1.20;100367.00;;;;9736969;30;20210;-79
2023/03/11 05:10:44;;;;;;;11.10;4.70;;;;;-1.30;100374.00;;;;9763083;30;20693;-78
2023/03/11 05:15:47;;;;;;;5.10;3.87;;;;;-1.20;100366.00;;;;9722425;30;20214;-78
2023/03/11 05:20:49;;;;;;;10.50;3.70;;;;;-1.10;100362.00;;;;9726765;30;20198;-78
2023/03/11 05:25:55;;;;;;;8.27;3.47;;;;;-1.10;100369.00;;;;9712384;30;20207;-78
2023/03/11 05:30:58;;;;;;;6.97;4.40;;;;;-1.20;100367.00;;;;9700681;30;20226;-78
2023/03/11 05:36:07;;;;;;;8.73;4.27;;;;;-1.20;100382.00;;;;9713569;30;20245;-79
2023/03/11 05:41:10;;;;;;;5.70;4.00;;;;;-1.20;100389.00;;;;9687592;30;20205;-78
2023/03/11 05:46:15;;;;;;;18.90;4.97;;;;;-1.30;100378.00;;;;9766693;30;20249;-78
2023/03/11 05:51:18;;;;;;;15.67;5.53;;;;;-1.20;100397.00;;;;9727671;30;20219;-79
2023/03/11 05:56:22;;;;;;;10.27;5.00;;;;;-1.20;100388.00;;;;9748839;30;20234;-78
2023/03/11 06:01:27;;;;;;;11.37;4.97;;;;;-1.20;100411.00;;;;9734553;30;20317;-79
2023/03/11 06:06:29;;;;;;;7.33;4.93;;;;;-1.20;100423.00;;;;9706472;30;20210;-77
2023/03/11 06:11:31;;;;;;;9.20;5.10;;;;;-1.10;100431.00;;;;9711792;30;20306;-79
2023/03/11 06:16:33;;;;;;;10.97;4.87;;;;;-1.00;100432.00;;;;9718592;30;20675;-79
2023/03/11 06:21:37;;;;;;;12.60;5.40;;;;;-0.90;100442.00;;;;9706075;30;20203;-78
2023/03/11 06:26:40;;;;;;;22.07;7.03;;;;;-0.90;100439.00;;;;9747660;30;20297;-78
2023/03/11 06:31:42;;;;;;;23.67;10.20;;;;;-0.90;100459.00;;;;9732512;30;20248;-79
2023/03/11 06:36:46;;;;;;;12.83;6.43;;;;;-0.80;100466.00;;;;9732778;30;20293;-78
2023/03/11 06:41:48;;;;;;;13.93;5.17;;;;;-0.60;100466.00;;;;9718834;30;20179;-78
2023/03/11 06:46:51;;;;;;;14.73;5.47;;;;;-0.40;100465.00;;;;9703571;30;20239;-79
2023/03/11 06:51:53;;;;;;;12.80;5.87;;;;;-0.30;100473.00;;;;9717830;30;20218;-79
2023/03/11 06:56:55;;;;;;;20.37;7.40;;;;;-0.10;100475.00;;;;9746056;30;20321;-79
2023/03/11 07:01:57;;;;;;;19.53;7.50;;;;;0.10;100473.00;;;;9704759;30;20253;-80
2023/03/11 07:07:00;;;;;;;13.57;7.27;;;;;0.40;100472.00;;;;9734533;30;20286;-79
2023/03/11 07:12:02;;;;;;;15.87;8.23;;;;;0.50;100481.00;;;;9760836;30;20234;-79
2023/03/11 07:17:10;;;;;;;16.27;7.43;;;;;0.80;100494.00;;;;9698641;30;20676;-79
2023/03/11 07:22:18;;;;;;;12.87;5.90;;;;;1.10;100483.00;;;;9707392;30;20305;-79
2023/03/11 07:27:21;;;;;;;18.23;6.37;;;;;1.40;100483.00;;;;9736169;30;20207;-80
2023/03/11 07:32:23;;;;;;;17.87;7.10;;;;;1.70;100489.00;;;;9702465;30;20222;-79
2023/03/11 07:37:26;;;;;;;10.77;5.50;;;;;2.00;100486.00;;;;9722353;30;20218;-79
2023/03/11 07:42:28;;;;;;;9.73;5.50;;;;;2.30;100490.00;;;;9718667;30;20313;-80
2023/03/11 07:47:29;;;;;;;10.60;5.20;;;;;2.50;100485.00;;;;9744220;30;20214;-79
2023/03/11 07:52:32;;;;;;;11.30;5.30;;;;;2.80;100490.00;;;;9734211;30;20257;-79
2023/03/11 07:57:34;;;;;;;10.87;5.73;;;;;3.10;100494.00;;;;9734210;30;20202;-80
2023/03/11 08:02:36;;;;;;;7.00;3.87;;;;;3.10;100476.00;;;;9717884;30;20203;-79
2023/03/11 08:07:38;;;;;;;13.27;4.00;;;;;3.30;100485.00;;;;9732657;30;20222;-80
2023/03/11 08:12:40;;;;;;;9.87;4.70;;;;;3.60;100486.00;;;;9713921;30;20218;-79
2023/03/11 08:17:42;;;;;;;15.80;5.00;;;;;4.00;100489.00;;;;9692379;30;20233;-79
2023/03/11 08:22:44;;;;;;;11.80;6.13;;;;;4.40;100504.00;;;;9732212;30;20668;-79
2023/03/11 08:27:59;;;;;;;12.00;5.23;;;;;4.90;100520.00;;;;9733549;30;20594;-79
2023/03/11 08:33:01;;;;;;;5.33;3.43;;;;;5.20;100523.00;;;;9766131;30;20214;-80
2023/03/11 08:38:03;;;;;;;9.50;3.60;;;;;5.60;100540.00;;;;9748224;30;20339;-79
2023/03/11 08:43:06;;;;;;;11.57;3.77;;;;;6.10;100544.00;;;;9710292;30;20269;-80
2023/03/11 08:48:10;;;;;;;12.60;3.53;;;;;6.30;100552.00;;;;9735242;30;20229;-79
2023/03/11 08:53:12;;;;;;;8.17;3.07;;;;;6.50;100549.00;;;;9737079;30;20317;-79
2023/03/11 08:58:15;;;;;;;6.80;2.57;;;;;6.70;100562.00;;;;9701038;30;20207;-77
2023/03/11 09:03:17;;;;;;;5.47;2.27;;;;;6.90;100564.00;;;;9726155;30;20208;-77
2023/03/11 09:08:19;;;;;;;6.80;2.80;;;;;7.20;100565.00;;;;9691170;30;20249;-78
2023/03/11 09:13:21;;;;;;;7.30;2.10;;;;;7.50;100572.00;;;;9727128;30;20229;-77
2023/03/11 09:18:23;;;;;;;6.27;2.67;;;;;8.00;100573.00;;;;9737351;30;20289;-78
2023/03/11 09:23:26;;;;;;;9.33;2.07;;;;;8.50;100581.00;;;;9717284;30;20265;-79
2023/03/11 09:28:28;;;;;;;6.80;1.57;;;;;8.80;100591.00;;;;9733598;30;20293;-79
2023/03/11 09:33:30;;;;;;;6.70;1.47;;;;;9.00;100598.00;;;;9732184;30;20762;-79
2023/03/11 09:38:32;;;;;;;6.27;1.27;;;;;9.30;100591.00;;;;9699458;30;20204;-78
2023/03/11 09:43:54;;;;;;;6.47;1.20;;;;;9.60;100598.00;;;;9701118;30;20238;-78
2023/03/11 09:49:14;;;;;;;7.07;1.30;;;;;9.80;100602.00;;;;9709284;30;20293;-79
2023/03/11 09:54:17;;;;;;;5.57;1.40;;;;;10.40;100609.00;;;;9701834;30;20226;-80
2023/03/11 09:59:30;;;;;;;8.20;1.53;;;;;10.70;100607.00;;;;9742115;30;20265;-79
2023/03/11 10:04:40;;;;;;;6.00;1.27;;;;;10.30;100604.00;;;;9723785;30;20230;-77
2023/03/11 10:09:50;;;;;;;5.40;1.10;;;;;9.70;100628.00;;;;9719517;30;20261;-78
2023/03/11 10:15:35;;;;;;;2.53;0.90;;;;;9.50;100630.00;;;;9704364;30;20431;-78
2023/03/11 10:20:56;;;;;;;3.87;1.13;;;;;10.30;100638.00;;;;9708645;30;20689;-78
2023/03/11 10:26:12;;;;;;;6.63;1.27;;;;;11.20;100636.00;;;;9682431;30;20238;-78
2023/03/11 10:31:22;;;;;;;7.40;1.00;;;;;13.00;100640.00;;;;9745595;30;20245;-78
2023/03/11 10:36:38;;;;;;;5.43;1.60;;;;;12.80;100640.00;;;;9741699;30;20206;-76
2023/03/11 10:41:45;;;;;;;4.23;1.10;;;;;12.00;100633.00;;;;9719551;30;20206;-77
2023/03/11 10:46:47;;;;;;;3.47;1.07;;;;;11.60;100621.00;;;;9748138;30;20230;-77
2023/03/11 10:51:51;;;;;;;3.07;1.03;;;;;11.10;100617.00;;;;9701200;30;20222;-78
2023/03/11 10:56:56;;;;;;;4.17;1.10;;;;;11.20;100621.00;;;;9703489;30;20245;-78
2023/03/11 11:02:01;;;;;;;2.63;1.13;;;;;10.80;100624.00;;;;9716513;30;20210;-78
2023/03/11 11:07:20;;;;;;;1.40;0.97;;;;;10.80;100612.00;;;;9731545;30;20560;-79
2023/03/11 11:12:22;;;;;;;4.90;1.17;;;;;11.00;100624.00;;;;9708311;30;20297;-80
2023/03/11 11:17:29;;;;;;;3.37;1.20;;;;;10.90;100629.00;;;;9728288;30;20225;-79
2023/03/11 11:22:31;;;;;;;3.83;0.90;;;;;11.00;100620.00;;;;9729845;30;20253;-80
2023/03/11 11:27:33;;;;;;;3.00;1.00;;;;;11.50;100626.00;;;;9718623;30;20214;-80
2023/03/11 11:32:36;;;;;;;3.97;1.23;;;;;11.30;100620.00;;;;9715456;30;20228;-80
2023/03/11 11:37:41;;;;;;;3.23;1.07;;;;;11.30;100620.00;;;;9732615;30;20281;-77
2023/03/11 11:42:49;;;;;;;4.13;1.20;;;;;11.40;100618.00;;;;9733188;30;20226;-80
2023/03/11 11:47:56;;;;;;;3.40;1.00;;;;;12.20;100625.00;;;;9743121;30;20224;-78
2023/03/11 11:53:10;;;;;;;7.87;1.20;;;;;12.20;100622.00;;;;9719230;30;20313;-79
2023/03/11 11:58:12;;;;;;;5.57;1.30;;;;;11.80;100608.00;;;;9719486;30;20234;-78
2023/03/11 12:03:55;;;;;;;3.60;1.20;;;;;11.40;100607.00;;;;9726675;30;20234;-78
2023/03/11 12:09:04;;;;;;;2.67;1.10;;;;;11.90;100600.00;;;;9733494;30;20232;-79
2023/03/11 12:14:20;;;;;;;4.87;1.53;;;;;12.90;100599.00;;;;9727124;30;20229;-78
2023/03/11 12:19:31;;;;;;;5.80;1.40;;;;;13.30;100610.00;;;;9720545;30;20242;-79
2023/03/11 12:24:42;;;;;;;5.07;1.63;;;;;12.20;100592.00;;;;9738836;30;20230;-78
2023/03/11 12:29:50;;;;;;;3.90;1.43;;;;;11.90;100591.00;;;;9734209;30;20412;-78
2023/03/11 12:34:52;;;;;;;6.20;1.40;;;;;12.00;100589.00;;;;9725282;30;20223;-78
2023/03/11 12:39:54;;;;;;;3.60;1.60;;;;;11.90;100581.00;;;;9701038;30;20203;-78
2023/03/11 12:45:35;;;;;;;4.47;1.33;;;;;12.20;100580.00;;;;9744031;30;20730;-78
2023/03/11 12:50:42;;;;;;;5.40;1.53;;;;;12.50;100568.00;;;;9745952;30;20241;-79
2023/03/11 12:56:26;;;;;;;3.57;1.40;;;;;12.30;100560.00;;;;9756651;30;20218;-79
2023/03/11 13:01:52;;;;;;;4.13;1.83;;;;;12.50;100564.00;;;;9743155;30;20210;-78
2023/03/11 13:07:20;;;;;;;5.13;1.70;;;;;12.80;100561.00;;;;9731222;30;20299;-78
2023/03/11 13:12:43;;;;;;;5.83;1.93;;;;;13.20;100557.00;;;;9711417;30;20319;-79
2023/03/11 13:18:12;;;;;;;6.10;2.40;;;;;13.30;100551.00;;;;9734438;30;20205;-78
2023/03/11 13:23:23;;;;;;;9.13;2.35;;;;;13.60;100552.00;;;;9741150;30;20199;-77
2023/03/11 13:28:43;;;;;;;5.40;2.00;;;;;12.60;100556.00;;;;9734259;30;20230;-78
2023/03/11 13:33:51;;;;;;;5.17;1.80;;;;;13.60;100542.00;;;;9730544;30;20221;-81
2023/03/11 13:39:01;;;;;;;6.78;1.90;;;;;14.90;100546.00;;;;9702845;30;20218;-78
2023/03/11 13:44:23;;;;;;;3.63;1.70;;;;;15.40;100541.00;;;;9731383;30;20231;-78
2023/03/11 13:49:51;;;;;;;5.80;2.28;;;;;17.00;100550.00;;;;9706263;30;20215;-78
2023/03/11 13:55:07;;;;;;;6.47;1.88;;;;;18.60;100504.00;;;;9744369;30;20711;-80
2023/03/11 14:00:16;;;;;;;7.15;2.40;;;;;20.20;100494.00;;;;9713958;30;20309;-80
2023/03/11 14:05:25;;;;;;;4.10;1.88;;;;;19.10;100495.00;;;;9717058;30;20198;-79
2023/03/11 14:10:29;;;;;;;5.07;1.90;;;;;19.80;100485.00;;;;9730782;30;20202;-80
2023/03/11 14:15:42;;;;;;;6.97;2.42;;;;;18.60;100509.00;;;;9730613;30;20230;-80
2023/03/11 14:20:47;;;;;;;5.97;1.88;;;;;18.50;100520.00;;;;9720452;30;20694;-82
2023/03/11 14:25:57;;;;;;;3.42;2.13;;;;;18.00;100510.00;;;;9738541;30;20203;-80
2023/03/11 14:31:01;;;;;;;5.97;1.73;;;;;16.30;100511.00;;;;9709190;30;20719;-81
2023/03/11 14:36:08;;;;;;;6.53;2.00;;;;;17.20;100507.00;;;;9722410;30;20320;-81
2023/03/11 14:41:14;;;;;;;5.67;2.03;;;;;18.70;100502.00;;;;9742994;30;20211;-80
2023/03/11 14:46:24;;;;;;;6.60;2.40;;;;;20.70;100471.00;;;;9731534;30;20255;-80
2023/03/11 14:51:32;;;;;;;6.18;2.20;;;;;19.90;100505.00;;;;9718498;30;20218;-81
2023/03/11 14:56:39;;;;;;;7.93;1.97;;;;;18.20;100513.00;;;;9740712;30;20622;-80
2023/03/11 15:01:43;;;;;;;5.53;2.15;;;;;17.70;100515.00;;;;9731063;30;20252;-81
2023/03/11 15:06:46;;;;;;;5.83;1.93;;;;;16.40;100540.00;;;;9726725;30;20325;-80
2023/03/11 15:11:54;;;;;;;7.32;1.80;;;;;14.70;100571.00;;;;9713778;30;20222;-80
2023/03/11 15:17:13;;;;;;;5.67;2.10;;;;;14.70;100541.00;;;;9710313;30;20214;-80
2023/03/11 15:22:38;;;;;;;5.53;1.97;;;;;14.80;100533.00;;;;9718476;30;20238;-80
2023/03/11 15:27:40;;;;;;;7.20;2.27;;;;;14.70;100567.00;;;;9723791;30;20302;-80
2023/03/11 15:32:43;;;;;;;5.70;2.00;;;;;13.50;100556.00;;;;9708598;30;20301;-79
2023/03/11 15:37:49;;;;;;;5.40;1.90;;;;;14.40;100559.00;;;;9717736;30;20351;-79
2023/03/11 15:43:28;;;;;;;6.13;1.73;;;;;14.90;100545.00;;;;9757320;30;20229;-80
2023/03/11 15:48:30;;;;;;;6.00;1.77;;;;;13.30;100559.00;;;;9743558;30;20237;-80
2023/03/11 15:53:32;;;;;;;2.43;1.60;;;;;11.60;100558.00;;;;9705868;30;20706;-79
2023/03/11 15:58:35;;;;;;;4.67;1.87;;;;;10.30;100562.00;;;;9733267;30;20206;-80
2023/03/11 16:03:37;;;;;;;5.67;2.10;;;;;9.80;100560.00;;;;9746533;30;20213;-80
2023/03/11 16:08:40;;;;;;;4.43;1.50;;;;;9.60;100569.00;;;;9727970;30;20199;-80
2023/03/11 16:13:42;;;;;;;5.30;2.27;;;;;9.30;100560.00;;;;9703786;30;20229;-80
2023/03/11 16:18:44;;;;;;;9.30;1.87;;;;;8.90;100560.00;;;;9726125;30;20332;-80
2023/03/11 16:23:47;;;;;;;4.40;1.83;;;;;8.50;100561.00;;;;9720891;30;20230;-79
2023/03/11 16:28:53;;;;;;;6.00;1.70;;;;;8.30;100553.00;;;;9734129;30;20837;-80
2023/03/11 16:33:55;;;;;;;3.40;1.73;;;;;8.10;100559.00;;;;9715640;30;20211;-78
2023/03/11 16:38:57;;;;;;;3.53;1.73;;;;;7.70;100546.00;;;;9749595;30;20209;-79
2023/03/11 16:43:59;;;;;;;2.93;1.00;;;;;7.50;100552.00;;;;9719377;30;20233;-78
2023/03/11 16:49:01;;;;;;;7.10;1.60;;;;;7.40;100547.00;;;;9699323;30;20214;-79
2023/03/11 16:54:03;;;;;;;3.43;1.50;;;;;7.20;100544.00;;;;9699343;30;20277;-79
2023/03/11 16:59:05;;;;;;;5.90;2.10;;;;;7.10;100556.00;;;;9761748;30;20286;-79
2023/03/11 17:04:07;;;;;;;4.50;1.77;;;;;6.90;100557.00;;;;9719037;30;20207;-81
2023/03/11 17:09:09;;;;;;;3.80;1.60;;;;;6.70;100560.00;;;;9748166;30;20206;-79
2023/03/11 17:14:11;;;;;;;10.90;2.00;;;;;6.50;100562.00;;;;9725933;30;20227;-80
2023/03/11 17:19:17;;;;;;;7.07;2.60;;;;;6.40;100568.00;;;;9728855;30;20210;-80
2023/03/11 17:24:20;;;;;;;5.97;2.40;;;;;6.20;100574.00;;;;9719258;30;20207;-81
2023/03/11 17:29:22;;;;;;;9.90;2.40;;;;;5.90;100575.00;;;;9720928;30;20213;-80
2023/03/11 17:34:24;;;;;;;4.53;2.40;;;;;5.80;100571.00;;;;9697279;30;20707;-81
2023/03/11 17:39:25;;;;;;;4.27;2.00;;;;;5.70;100576.00;;;;9743016;30;20276;-80
2023/03/11 17:44:27;;;;;;;4.67;2.00;;;;;5.60;100594.00;;;;9713827;30;20262;-81
2023/03/11 17:49:38;;;;;;;7.23;2.90;;;;;5.50;100599.00;;;;9710363;30;20546;-80
2023/03/11 17:54:40;;;;;;;5.17;2.20;;;;;5.50;100604.00;;;;9754583;30;20249;-80
2023/03/11 17:59:43;;;;;;;6.27;2.33;;;;;5.50;100602.00;;;;9746762;30;20203;-81
2023/03/11 18:04:50;;;;;;;4.87;1.97;;;;;5.40;100606.00;;;;9746408;30;20206;-80
2023/03/11 18:09:54;;;;;;;9.53;2.27;;;;;5.30;100601.00;;;;9731595;30;20210;-80
2023/03/11 18:14:56;;;;;;;7.67;2.37;;;;;5.20;100608.00;;;;9731099;30;20300;-81
2023/03/11 18:19:58;;;;;;;7.00;2.10;;;;;5.10;100610.00;;;;9745824;30;20206;-81
2023/03/11 18:25:00;;;;;;;5.10;2.43;;;;;5.00;100612.00;;;;9725677;30;20207;-80
2023/03/11 18:30:04;;;;;;;7.17;2.13;;;;;4.90;100607.00;;;;9695770;30;20221;-80
2023/03/11 18:35:06;;;;;;;7.07;2.00;;;;;4.70;100613.00;;;;9715173;30;20207;-79
2023/03/11 18:40:10;;;;;;;4.00;2.83;;;;;4.50;100612.00;;;;9759956;30;20195;-79
2023/03/11 18:45:15;;;;;;;6.97;3.00;;;;;4.30;100611.00;;;;9739475;30;20880;-79
2023/03/11 18:50:17;;;;;;;12.87;2.57;;;;;4.30;100627.00;;;;9723013;30;20214;-79
2023/03/11 18:55:19;;;;;;;8.87;3.10;;;;;4.20;100618.00;;;;9732766;30;20245;-79
2023/03/11 19:00:22;;;;;;;10.30;3.17;;;;;4.10;100621.00;;;;9744460;30;20210;-79
2023/03/11 19:05:24;;;;;;;7.50;3.10;;;;;4.00;100620.00;;;;9715950;30;20195;-79
2023/03/11 19:10:26;;;;;;;7.50;3.10;;;;;3.90;100618.00;;;;9763753;30;20210;-80
2023/03/11 19:15:28;;;;;;;8.77;3.23;;;;;3.70;100610.00;;;;9715365;30;20253;-79
2023/03/11 19:20:30;;;;;;;10.80;4.57;;;;;3.60;100615.00;;;;9751296;30;20207;-80
2023/03/11 19:25:33;;;;;;;8.90;3.67;;;;;3.40;100617.00;;;;9708593;30;20223;-79
2023/03/11 19:30:35;;;;;;;8.33;4.10;;;;;3.30;100616.00;;;;9718182;30;20222;-79
2023/03/11 19:35:37;;;;;;;8.67;4.13;;;;;3.20;100612.00;;;;9730462;30;20259;-81
2023/03/11 19:40:39;;;;;;;12.50;5.17;;;;;3.00;100615.00;;;;9730150;30;20207;-80
2023/03/11 19:45:41;;;;;;;13.93;5.97;;;;;3.00;100616.00;;;;9743651;30;20737;-81
2023/03/11 19:50:44;;;;;;;13.17;5.60;;;;;3.10;100607.00;;;;9686459;30;20210;-80
2023/03/11 19:55:49;;;;;;;17.07;7.37;;;;;3.10;100612.00;;;;9693533;30;20226;-80
2023/03/11 20:00:52;;;;;;;15.10;7.33;;;;;3.30;100625.00;;;;9735159;30;20221;-79
2023/03/11 20:05:56;;;;;;;16.17;8.07;;;;;3.30;100612.00;;;;9733977;30;20281;-79
2023/03/11 20:11:00;;;;;;;14.97;7.67;;;;;3.30;100594.00;;;;9697875;30;20258;-80
2023/03/11 20:16:11;;;;;;;14.50;8.43;;;;;3.30;100605.00;;;;9761461;30;20272;-79
2023/03/11 20:21:13;;;;;;;16.03;8.43;;;;;3.40;100610.00;;;;9733416;30;20226;-80
2023/03/11 20:26:17;;;;;;;16.47;7.73;;;;;3.50;100620.00;;;;9720821;30;20262;-81
2023/03/11 20:31:22;;;;;;;14.13;7.17;;;;;3.50;100614.00;;;;9734718;30;20229;-80
2023/03/11 20:36:30;;;;;;;11.30;5.90;;;;;3.40;100620.00;;;;9748315;30;20214;-80
2023/03/11 20:41:38;;;;;;;10.03;6.43;;;;;3.30;100618.00;;;;9706073;30;20237;-80
2023/03/11 20:46:40;;;;;;;11.77;7.90;;;;;3.20;100616.00;;;;9700475;30;20234;-80
2023/03/11 20:51:46;;;;;;;15.03;10.70;;;;;3.10;100609.00;;;;9697390;30;20231;-81
2023/03/11 20:56:49;;;;;;;21.07;14.20;;;;;3.10;100599.00;;;;9726557;30;20277;-80
2023/03/11 21:01:52;;;;;;;12.70;8.73;;;;;3.10;100599.00;;;;9732872;30;20202;-81
2023/03/11 21:06:56;;;;;;;10.23;5.50;;;;;3.20;100608.00;;;;9747587;30;20261;-80
2023/03/11 21:11:59;;;;;;;8.13;5.13;;;;;3.20;100601.00;;;;9749381;30;20204;-81
2023/03/11 21:17:01;;;;;;;9.40;5.67;;;;;3.30;100600.00;;;;9740032;30;20210;-80
2023/03/11 21:22:04;;;;;;;15.13;6.57;;;;;3.30;100596.00;;;;9733192;30;20198;-80
2023/03/11 21:27:06;;;;;;;20.43;5.17;;;;;3.30;100591.00;;;;9733378;30;20210;-79
2023/03/11 21:32:08;;;;;;;7.30;4.50;;;;;3.40;100593.00;;;;9683989;30;20207;-80
2023/03/11 21:37:10;;;;;;;10.83;4.43;;;;;3.50;100602.00;;;;9721634;30;20222;-80
2023/03/11 21:42:13;;;;;;;9.03;4.43;;;;;3.60;100588.00;;;;9747788;30;20244;-79
2023/03/11 21:47:15;;;;;;;11.67;4.97;;;;;3.70;100597.00;;;;9736010;30;20231;-80
2023/03/11 21:52:17;;;;;;;9.60;4.33;;;;;3.80;100591.00;;;;9710917;30;20191;-80
2023/03/11 21:57:19;;;;;;;8.40;4.07;;;;;3.90;100596.00;;;;9714666;30;20680;-79
2023/03/11 22:02:21;;;;;;;7.50;4.00;;;;;3.90;100591.00;;;;9749509;30;20214;-80
2023/03/11 22:07:23;;;;;;;9.23;4.03;;;;;3.90;100593.00;;;;9718251;30;20240;-80
2023/03/11 22:12:25;;;;;;;9.73;3.40;;;;;3.90;100590.00;;;;9716837;30;20211;-81
2023/03/11 22:17:27;;;;;;;7.93;3.50;;;;;3.90;100582.00;;;;9741834;30;20579;-80
2023/03/11 22:22:30;;;;;;;6.87;3.77;;;;;3.90;100582.00;;;;9704986;30;20322;-80
2023/03/11 22:27:32;;;;;;;10.63;4.60;;;;;3.90;100571.00;;;;9695662;30;20675;-79
2023/03/11 22:32:34;;;;;;;8.17;3.67;;;;;3.80;100565.00;;;;9709847;30;20660;-80
2023/03/11 22:37:37;;;;;;;9.07;3.60;;;;;3.70;100578.00;;;;9702893;30;20727;-79
2023/03/11 22:42:39;;;;;;;9.40;3.53;;;;;3.70;100567.00;;;;9734504;30;20716;-80
2023/03/11 22:47:41;;;;;;;6.43;3.97;;;;;3.70;100575.00;;;;9766271;30;20755;-79
2023/03/11 22:52:43;;;;;;;8.73;3.80;;;;;3.70;100573.00;;;;9740188;30;20226;-79
2023/03/11 22:57:45;;;;;;;10.50;4.03;;;;;3.80;100571.00;;;;9709720;30;20227;-80
2023/03/11 23:02:53;;;;;;;17.70;11.37;;;;;3.80;100571.00;;;;9744801;30;20216;-80
2023/03/11 23:07:54;;;;;;;10.87;4.83;;;;;3.80;100564.00;;;;9718851;30;20209;-79
2023/03/11 23:12:56;;;;;;;7.97;4.57;;;;;3.80;100565.00;;;;9725469;30;20422;-80
2023/03/11 23:17:58;;;;;;;11.97;4.90;;;;;3.80;100563.00;;;;9765829;30;20202;-80
2023/03/11 23:23:01;;;;;;;7.93;5.17;;;;;3.80;100555.00;;;;9717241;30;20564;-81
2023/03/11 23:28:04;;;;;;;7.90;5.17;;;;;3.80;100543.00;;;;9708054;30;20199;-80
2023/03/11 23:33:07;;;;;;;10.77;5.60;;;;;3.90;100528.00;;;;9722596;30;20766;-80
2023/03/11 23:38:09;;;;;;;10.60;5.53;;;;;3.90;100524.00;;;;9701679;30;20214;-80
2023/03/11 23:43:11;;;;;;;8.23;4.63;;;;;3.90;100520.00;;;;9744011;30;20233;-79
2023/03/11 23:48:14;;;;;;;9.17;5.20;;;;;3.90;100517.00;;;;9750671;30;20201;-80
2023/03/11 23:53:19;;;;;;;8.90;4.67;;;;;3.90;100518.00;;;;9697472;30;20302;-80
2023/03/11 23:58:22;;;;;;;7.43;4.23;;;;;3.90;100529.00;;;;9714194;30;20293;-80
